Terminal Aerodrome Forecast
Issued by NWS

Home | Current Version | Previous Version | Text Only | Print | Product List | Glossary On
Versions: 1 2 3 4 5 6 7 8 9 10 11 12 13 14
298
FTUS46 KSEW 301120
TAFBLI
TAF
KBLI 301120Z 3012/3112 16010KT P6SM VCSH SCT120
     FM301300 16010KT P6SM VCSH OVC012
     FM302100 17008KT P6SM VCSH OVC035
     FM311100 17010KT P6SM OVC020=

USA.gov is the U.S. government's official web portal to all federal, state and local government web resources and services.